sensor_id;sensor_type;location;lat;lon;timestamp;P1;durP1;ratioP1;P2;durP2;ratioP2
19278;SDS011;9773;47.062;15.446;2022-11-24T00:00:24;14.77;;;9.33;;
19278;SDS011;9773;47.062;15.446;2022-11-24T00:02:50;14.00;;;9.57;;
19278;SDS011;9773;47.062;15.446;2022-11-24T00:05:17;14.03;;;9.60;;
19278;SDS011;9773;47.062;15.446;2022-11-24T00:07:42;11.77;;;8.17;;
19278;SDS011;9773;47.062;15.446;2022-11-24T00:10:09;14.27;;;9.57;;
19278;SDS011;9773;47.062;15.446;2022-11-24T00:12:36;13.00;;;9.20;;
19278;SDS011;9773;47.062;15.446;2022-11-24T00:15:02;17.30;;;9.53;;
19278;SDS011;9773;47.062;15.446;2022-11-24T00:17:28;15.73;;;9.80;;
19278;SDS011;9773;47.062;15.446;2022-11-24T00:19:54;11.77;;;9.23;;
19278;SDS011;9773;47.062;15.446;2022-11-24T00:22:20;11.07;;;8.90;;
19278;SDS011;9773;47.062;15.446;2022-11-24T00:24:45;11.53;;;8.30;;
19278;SDS011;9773;47.062;15.446;2022-11-24T00:27:11;10.47;;;8.37;;
19278;SDS011;9773;47.062;15.446;2022-11-24T00:29:37;13.07;;;8.67;;
19278;SDS011;9773;47.062;15.446;2022-11-24T00:32:03;11.87;;;8.07;;
19278;SDS011;9773;47.062;15.446;2022-11-24T00:34:30;11.50;;;8.53;;
19278;SDS011;9773;47.062;15.446;2022-11-24T00:36:57;11.37;;;9.07;;
19278;SDS011;9773;47.062;15.446;2022-11-24T00:39:23;12.30;;;8.47;;
19278;SDS011;9773;47.062;15.446;2022-11-24T00:41:49;13.77;;;9.23;;
19278;SDS011;9773;47.062;15.446;2022-11-24T00:44:14;13.00;;;9.07;;
19278;SDS011;9773;47.062;15.446;2022-11-24T00:46:40;11.00;;;8.40;;
19278;SDS011;9773;47.062;15.446;2022-11-24T00:49:06;12.87;;;7.83;;
19278;SDS011;9773;47.062;15.446;2022-11-24T00:51:32;11.93;;;8.10;;
19278;SDS011;9773;47.062;15.446;2022-11-24T00:53:58;9.30;;;7.83;;
19278;SDS011;9773;47.062;15.446;2022-11-24T00:56:25;11.57;;;8.10;;
19278;SDS011;9773;47.062;15.446;2022-11-24T00:58:52;10.50;;;7.73;;
19278;SDS011;9773;47.062;15.446;2022-11-24T01:01:20;9.80;;;7.40;;
19278;SDS011;9773;47.062;15.446;2022-11-24T01:03:47;10.53;;;7.70;;
19278;SDS011;9773;47.062;15.446;2022-11-24T01:06:15;11.83;;;7.77;;
19278;SDS011;9773;47.062;15.446;2022-11-24T01:08:42;11.70;;;7.47;;
19278;SDS011;9773;47.062;15.446;2022-11-24T01:11:30;13.07;;;7.60;;
19278;SDS011;9773;47.062;15.446;2022-11-24T01:14:16;11.90;;;7.70;;
19278;SDS011;9773;47.062;15.446;2022-11-24T01:16:42;10.00;;;7.60;;
19278;SDS011;9773;47.062;15.446;2022-11-24T01:19:09;9.07;;;7.17;;
19278;SDS011;9773;47.062;15.446;2022-11-24T01:21:34;10.90;;;7.70;;
19278;SDS011;9773;47.062;15.446;2022-11-24T01:24:00;8.50;;;6.83;;
19278;SDS011;9773;47.062;15.446;2022-11-24T01:26:26;7.80;;;6.87;;
19278;SDS011;9773;47.062;15.446;2022-11-24T01:28:52;7.80;;;6.77;;
19278;SDS011;9773;47.062;15.446;2022-11-24T01:31:20;11.93;;;7.67;;
19278;SDS011;9773;47.062;15.446;2022-11-24T01:33:46;12.60;;;7.17;;
19278;SDS011;9773;47.062;15.446;2022-11-24T01:36:12;9.83;;;7.37;;
19278;SDS011;9773;47.062;15.446;2022-11-24T01:38:38;10.80;;;7.70;;
19278;SDS011;9773;47.062;15.446;2022-11-24T01:41:20;9.90;;;7.27;;
19278;SDS011;9773;47.062;15.446;2022-11-24T01:43:48;13.80;;;7.43;;
19278;SDS011;9773;47.062;15.446;2022-11-24T01:51:33;8.63;;;6.63;;
19278;SDS011;9773;47.062;15.446;2022-11-24T01:54:04;8.60;;;7.60;;
19278;SDS011;9773;47.062;15.446;2022-11-24T01:56:40;10.20;;;7.20;;
19278;SDS011;9773;47.062;15.446;2022-11-24T01:59:10;10.30;;;7.70;;
19278;SDS011;9773;47.062;15.446;2022-11-24T02:01:40;9.23;;;7.23;;
19278;SDS011;9773;47.062;15.446;2022-11-24T02:04:07;8.97;;;7.17;;
19278;SDS011;9773;47.062;15.446;2022-11-24T02:06:36;8.73;;;6.67;;
19278;SDS011;9773;47.062;15.446;2022-11-24T02:11:43;7.17;;;6.23;;
19278;SDS011;9773;47.062;15.446;2022-11-24T02:14:11;6.97;;;6.17;;
19278;SDS011;9773;47.062;15.446;2022-11-24T02:16:40;9.20;;;7.00;;
19278;SDS011;9773;47.062;15.446;2022-11-24T02:19:21;8.43;;;6.73;;
19278;SDS011;9773;47.062;15.446;2022-11-24T02:22:01;8.43;;;6.83;;
19278;SDS011;9773;47.062;15.446;2022-11-24T02:27:16;10.87;;;7.10;;
19278;SDS011;9773;47.062;15.446;2022-11-24T02:29:43;7.60;;;5.73;;
19278;SDS011;9773;47.062;15.446;2022-11-24T02:32:10;11.93;;;6.60;;
19278;SDS011;9773;47.062;15.446;2022-11-24T02:34:36;7.00;;;6.30;;
19278;SDS011;9773;47.062;15.446;2022-11-24T02:37:02;9.70;;;6.97;;
19278;SDS011;9773;47.062;15.446;2022-11-24T02:39:28;9.50;;;6.93;;
19278;SDS011;9773;47.062;15.446;2022-11-24T02:41:56;10.03;;;6.10;;
19278;SDS011;9773;47.062;15.446;2022-11-24T02:44:29;7.77;;;6.97;;
19278;SDS011;9773;47.062;15.446;2022-11-24T02:47:03;6.50;;;5.90;;
19278;SDS011;9773;47.062;15.446;2022-11-24T02:49:30;8.00;;;6.77;;
19278;SDS011;9773;47.062;15.446;2022-11-24T02:51:55;10.97;;;5.83;;
19278;SDS011;9773;47.062;15.446;2022-11-24T02:54:21;8.47;;;6.90;;
19278;SDS011;9773;47.062;15.446;2022-11-24T02:56:47;7.53;;;6.73;;
19278;SDS011;9773;47.062;15.446;2022-11-24T02:59:13;6.73;;;6.07;;
19278;SDS011;9773;47.062;15.446;2022-11-24T03:01:38;7.40;;;6.43;;
19278;SDS011;9773;47.062;15.446;2022-11-24T03:04:04;7.40;;;6.47;;
19278;SDS011;9773;47.062;15.446;2022-11-24T03:06:30;8.93;;;6.57;;
19278;SDS011;9773;47.062;15.446;2022-11-24T03:08:56;8.40;;;6.93;;
19278;SDS011;9773;47.062;15.446;2022-11-24T03:11:21;9.47;;;7.13;;
19278;SDS011;9773;47.062;15.446;2022-11-24T03:13:48;8.80;;;6.77;;
19278;SDS011;9773;47.062;15.446;2022-11-24T03:16:14;8.57;;;7.00;;
19278;SDS011;9773;47.062;15.446;2022-11-24T03:18:39;9.50;;;6.80;;
19278;SDS011;9773;47.062;15.446;2022-11-24T03:21:05;7.30;;;6.57;;
19278;SDS011;9773;47.062;15.446;2022-11-24T03:23:31;9.33;;;7.57;;
19278;SDS011;9773;47.062;15.446;2022-11-24T03:26:09;9.73;;;6.53;;
19278;SDS011;9773;47.062;15.446;2022-11-24T03:28:37;8.23;;;7.40;;
19278;SDS011;9773;47.062;15.446;2022-11-24T03:31:03;7.63;;;6.83;;
19278;SDS011;9773;47.062;15.446;2022-11-24T03:33:29;9.93;;;6.70;;
19278;SDS011;9773;47.062;15.446;2022-11-24T03:35:55;9.53;;;7.00;;
19278;SDS011;9773;47.062;15.446;2022-11-24T03:38:20;6.87;;;6.23;;
19278;SDS011;9773;47.062;15.446;2022-11-24T03:40:46;7.67;;;6.57;;
19278;SDS011;9773;47.062;15.446;2022-11-24T03:43:12;7.53;;;6.37;;
19278;SDS011;9773;47.062;15.446;2022-11-24T03:45:38;9.17;;;6.90;;
19278;SDS011;9773;47.062;15.446;2022-11-24T03:48:04;8.17;;;7.07;;
19278;SDS011;9773;47.062;15.446;2022-11-24T03:50:31;7.67;;;6.43;;
19278;SDS011;9773;47.062;15.446;2022-11-24T03:52:57;7.57;;;6.77;;
19278;SDS011;9773;47.062;15.446;2022-11-24T03:55:23;8.07;;;6.80;;
19278;SDS011;9773;47.062;15.446;2022-11-24T03:57:49;8.57;;;7.20;;
19278;SDS011;9773;47.062;15.446;2022-11-24T04:00:14;8.27;;;6.87;;
19278;SDS011;9773;47.062;15.446;2022-11-24T04:02:41;7.77;;;6.70;;
19278;SDS011;9773;47.062;15.446;2022-11-24T04:05:06;8.43;;;7.13;;
19278;SDS011;9773;47.062;15.446;2022-11-24T04:07:33;10.53;;;7.03;;
19278;SDS011;9773;47.062;15.446;2022-11-24T04:09:59;8.37;;;7.37;;
19278;SDS011;9773;47.062;15.446;2022-11-24T04:12:25;9.53;;;6.80;;
19278;SDS011;9773;47.062;15.446;2022-11-24T04:15:10;9.97;;;7.67;;
19278;SDS011;9773;47.062;15.446;2022-11-24T04:17:37;9.33;;;7.63;;
19278;SDS011;9773;47.062;15.446;2022-11-24T04:20:03;9.23;;;6.90;;
19278;SDS011;9773;47.062;15.446;2022-11-24T04:22:29;10.33;;;7.43;;
19278;SDS011;9773;47.062;15.446;2022-11-24T04:24:55;11.20;;;7.90;;
19278;SDS011;9773;47.062;15.446;2022-11-24T04:27:21;9.67;;;7.60;;
19278;SDS011;9773;47.062;15.446;2022-11-24T04:29:46;10.90;;;8.00;;
19278;SDS011;9773;47.062;15.446;2022-11-24T04:32:12;8.07;;;7.23;;
19278;SDS011;9773;47.062;15.446;2022-11-24T04:34:38;11.10;;;7.60;;
19278;SDS011;9773;47.062;15.446;2022-11-24T04:37:05;11.13;;;7.63;;
19278;SDS011;9773;47.062;15.446;2022-11-24T04:39:31;11.93;;;8.10;;
19278;SDS011;9773;47.062;15.446;2022-11-24T04:41:56;8.17;;;7.17;;
19278;SDS011;9773;47.062;15.446;2022-11-24T04:44:22;10.17;;;7.70;;
19278;SDS011;9773;47.062;15.446;2022-11-24T04:46:48;11.73;;;8.37;;
19278;SDS011;9773;47.062;15.446;2022-11-24T04:49:14;9.13;;;7.97;;
19278;SDS011;9773;47.062;15.446;2022-11-24T04:51:39;13.13;;;8.60;;
19278;SDS011;9773;47.062;15.446;2022-11-24T04:54:06;10.77;;;7.90;;
19278;SDS011;9773;47.062;15.446;2022-11-24T04:56:34;11.93;;;7.97;;
19278;SDS011;9773;47.062;15.446;2022-11-24T04:58:59;13.50;;;8.10;;
19278;SDS011;9773;47.062;15.446;2022-11-24T05:01:25;10.07;;;7.00;;
19278;SDS011;9773;47.062;15.446;2022-11-24T05:03:52;10.33;;;7.63;;
19278;SDS011;9773;47.062;15.446;2022-11-24T05:06:18;9.57;;;7.70;;
19278;SDS011;9773;47.062;15.446;2022-11-24T05:08:48;10.07;;;8.20;;
19278;SDS011;9773;47.062;15.446;2022-11-24T05:11:15;9.67;;;7.33;;
19278;SDS011;9773;47.062;15.446;2022-11-24T05:13:41;11.17;;;7.57;;
19278;SDS011;9773;47.062;15.446;2022-11-24T05:16:07;7.87;;;7.07;;
19278;SDS011;9773;47.062;15.446;2022-11-24T05:18:33;8.70;;;7.57;;
19278;SDS011;9773;47.062;15.446;2022-11-24T05:20:59;12.07;;;8.00;;
19278;SDS011;9773;47.062;15.446;2022-11-24T05:23:25;11.07;;;8.37;;
19278;SDS011;9773;47.062;15.446;2022-11-24T05:25:51;14.13;;;8.70;;
19278;SDS011;9773;47.062;15.446;2022-11-24T05:28:17;9.13;;;7.57;;
19278;SDS011;9773;47.062;15.446;2022-11-24T05:30:44;10.83;;;7.57;;
19278;SDS011;9773;47.062;15.446;2022-11-24T05:33:14;8.27;;;6.67;;
19278;SDS011;9773;47.062;15.446;2022-11-24T05:35:43;10.43;;;6.40;;
19278;SDS011;9773;47.062;15.446;2022-11-24T05:38:09;6.50;;;5.47;;
19278;SDS011;9773;47.062;15.446;2022-11-24T05:40:35;8.57;;;5.57;;
19278;SDS011;9773;47.062;15.446;2022-11-24T05:43:01;9.53;;;7.43;;
19278;SDS011;9773;47.062;15.446;2022-11-24T05:45:27;11.23;;;7.13;;
19278;SDS011;9773;47.062;15.446;2022-11-24T05:47:53;10.10;;;7.50;;
19278;SDS011;9773;47.062;15.446;2022-11-24T05:50:20;11.60;;;7.57;;
19278;SDS011;9773;47.062;15.446;2022-11-24T05:52:47;9.03;;;7.27;;
19278;SDS011;9773;47.062;15.446;2022-11-24T05:55:13;9.03;;;7.57;;
19278;SDS011;9773;47.062;15.446;2022-11-24T05:57:39;10.50;;;7.83;;
19278;SDS011;9773;47.062;15.446;2022-11-24T06:00:06;9.83;;;7.73;;
19278;SDS011;9773;47.062;15.446;2022-11-24T06:02:33;12.10;;;8.20;;
19278;SDS011;9773;47.062;15.446;2022-11-24T06:04:59;10.63;;;8.00;;
19278;SDS011;9773;47.062;15.446;2022-11-24T06:07:25;11.07;;;7.43;;
19278;SDS011;9773;47.062;15.446;2022-11-24T06:09:51;10.97;;;7.63;;
19278;SDS011;9773;47.062;15.446;2022-11-24T06:12:16;7.93;;;7.07;;
19278;SDS011;9773;47.062;15.446;2022-11-24T06:14:42;8.23;;;6.97;;
19278;SDS011;9773;47.062;15.446;2022-11-24T06:17:08;9.27;;;7.37;;
19278;SDS011;9773;47.062;15.446;2022-11-24T06:19:35;9.90;;;7.40;;
19278;SDS011;9773;47.062;15.446;2022-11-24T06:22:01;9.60;;;7.00;;
19278;SDS011;9773;47.062;15.446;2022-11-24T06:24:26;7.37;;;6.57;;
19278;SDS011;9773;47.062;15.446;2022-11-24T06:26:52;9.00;;;7.23;;
19278;SDS011;9773;47.062;15.446;2022-11-24T06:29:18;8.67;;;6.87;;
19278;SDS011;9773;47.062;15.446;2022-11-24T06:31:44;9.23;;;6.73;;
19278;SDS011;9773;47.062;15.446;2022-11-24T06:34:11;8.73;;;6.97;;
19278;SDS011;9773;47.062;15.446;2022-11-24T06:36:37;8.67;;;7.07;;
19278;SDS011;9773;47.062;15.446;2022-11-24T06:41:55;11.17;;;8.23;;
19278;SDS011;9773;47.062;15.446;2022-11-24T06:44:22;15.07;;;9.23;;
19278;SDS011;9773;47.062;15.446;2022-11-24T06:46:51;11.07;;;8.20;;
19278;SDS011;9773;47.062;15.446;2022-11-24T06:49:19;11.70;;;8.17;;
19278;SDS011;9773;47.062;15.446;2022-11-24T06:51:45;16.07;;;10.43;;
19278;SDS011;9773;47.062;15.446;2022-11-24T06:54:15;15.17;;;11.10;;
19278;SDS011;9773;47.062;15.446;2022-11-24T06:56:42;11.13;;;8.73;;
19278;SDS011;9773;47.062;15.446;2022-11-24T06:59:18;12.93;;;9.60;;
19278;SDS011;9773;47.062;15.446;2022-11-24T07:01:44;13.03;;;9.80;;
19278;SDS011;9773;47.062;15.446;2022-11-24T07:04:11;12.33;;;9.40;;
19278;SDS011;9773;47.062;15.446;2022-11-24T07:06:37;14.97;;;9.73;;
19278;SDS011;9773;47.062;15.446;2022-11-24T07:09:05;12.73;;;8.87;;
19278;SDS011;9773;47.062;15.446;2022-11-24T07:11:36;11.20;;;8.80;;
19278;SDS011;9773;47.062;15.446;2022-11-24T07:14:19;15.43;;;9.43;;
19278;SDS011;9773;47.062;15.446;2022-11-24T07:16:45;12.03;;;8.93;;
19278;SDS011;9773;47.062;15.446;2022-11-24T07:19:11;12.80;;;8.30;;
19278;SDS011;9773;47.062;15.446;2022-11-24T07:21:39;13.40;;;9.07;;
19278;SDS011;9773;47.062;15.446;2022-11-24T07:24:05;13.23;;;8.33;;
19278;SDS011;9773;47.062;15.446;2022-11-24T07:26:31;10.90;;;8.70;;
19278;SDS011;9773;47.062;15.446;2022-11-24T07:29:01;14.40;;;9.37;;
19278;SDS011;9773;47.062;15.446;2022-11-24T07:31:29;11.30;;;8.83;;
19278;SDS011;9773;47.062;15.446;2022-11-24T07:33:55;15.17;;;8.93;;
19278;SDS011;9773;47.062;15.446;2022-11-24T07:36:23;12.50;;;9.33;;
19278;SDS011;9773;47.062;15.446;2022-11-24T07:38:51;12.00;;;9.17;;
19278;SDS011;9773;47.062;15.446;2022-11-24T07:41:20;11.87;;;8.97;;
19278;SDS011;9773;47.062;15.446;2022-11-24T07:43:46;12.60;;;8.40;;
19278;SDS011;9773;47.062;15.446;2022-11-24T07:46:13;12.63;;;8.63;;
19278;SDS011;9773;47.062;15.446;2022-11-24T07:48:40;11.10;;;7.47;;
19278;SDS011;9773;47.062;15.446;2022-11-24T07:51:06;9.63;;;8.10;;
19278;SDS011;9773;47.062;15.446;2022-11-24T07:53:33;8.63;;;7.17;;
19278;SDS011;9773;47.062;15.446;2022-11-24T07:56:00;9.50;;;6.93;;
19278;SDS011;9773;47.062;15.446;2022-11-24T07:58:27;7.20;;;6.40;;
19278;SDS011;9773;47.062;15.446;2022-11-24T08:00:55;8.13;;;6.60;;
19278;SDS011;9773;47.062;15.446;2022-11-24T08:03:22;7.40;;;6.37;;
19278;SDS011;9773;47.062;15.446;2022-11-24T08:05:57;9.17;;;6.77;;
19278;SDS011;9773;47.062;15.446;2022-11-24T08:08:24;8.60;;;6.13;;
19278;SDS011;9773;47.062;15.446;2022-11-24T08:10:50;7.10;;;6.20;;
19278;SDS011;9773;47.062;15.446;2022-11-24T08:13:16;10.97;;;7.37;;
19278;SDS011;9773;47.062;15.446;2022-11-24T08:15:43;14.23;;;6.83;;
19278;SDS011;9773;47.062;15.446;2022-11-24T08:18:10;9.13;;;6.93;;
19278;SDS011;9773;47.062;15.446;2022-11-24T08:20:36;9.60;;;6.60;;
19278;SDS011;9773;47.062;15.446;2022-11-24T08:23:02;9.53;;;6.20;;
19278;SDS011;9773;47.062;15.446;2022-11-24T08:25:28;8.37;;;6.03;;
19278;SDS011;9773;47.062;15.446;2022-11-24T08:27:58;6.73;;;6.00;;
19278;SDS011;9773;47.062;15.446;2022-11-24T08:30:24;10.20;;;6.83;;
19278;SDS011;9773;47.062;15.446;2022-11-24T08:32:51;9.17;;;6.10;;
19278;SDS011;9773;47.062;15.446;2022-11-24T08:35:17;7.87;;;5.93;;
19278;SDS011;9773;47.062;15.446;2022-11-24T08:37:43;8.60;;;5.77;;
19278;SDS011;9773;47.062;15.446;2022-11-24T08:40:09;6.03;;;5.43;;
19278;SDS011;9773;47.062;15.446;2022-11-24T08:42:35;7.47;;;5.57;;
19278;SDS011;9773;47.062;15.446;2022-11-24T08:45:01;6.07;;;5.47;;
19278;SDS011;9773;47.062;15.446;2022-11-24T08:47:28;6.33;;;4.93;;
19278;SDS011;9773;47.062;15.446;2022-11-24T08:49:53;6.23;;;5.30;;
19278;SDS011;9773;47.062;15.446;2022-11-24T08:52:19;8.57;;;5.83;;
19278;SDS011;9773;47.062;15.446;2022-11-24T08:54:45;6.53;;;5.03;;
19278;SDS011;9773;47.062;15.446;2022-11-24T08:57:12;7.23;;;5.40;;
19278;SDS011;9773;47.062;15.446;2022-11-24T08:59:38;5.77;;;4.90;;
19278;SDS011;9773;47.062;15.446;2022-11-24T09:02:04;6.77;;;5.07;;
19278;SDS011;9773;47.062;15.446;2022-11-24T09:04:30;5.37;;;4.87;;
19278;SDS011;9773;47.062;15.446;2022-11-24T09:06:57;8.23;;;4.80;;
19278;SDS011;9773;47.062;15.446;2022-11-24T09:09:22;6.23;;;5.37;;
19278;SDS011;9773;47.062;15.446;2022-11-24T09:11:48;6.67;;;4.90;;
19278;SDS011;9773;47.062;15.446;2022-11-24T09:14:14;8.87;;;5.17;;
19278;SDS011;9773;47.062;15.446;2022-11-24T09:16:40;5.83;;;4.80;;
19278;SDS011;9773;47.062;15.446;2022-11-24T09:19:06;6.77;;;6.03;;
19278;SDS011;9773;47.062;15.446;2022-11-24T09:21:32;6.47;;;5.53;;
19278;SDS011;9773;47.062;15.446;2022-11-24T09:24:02;7.87;;;5.33;;
19278;SDS011;9773;47.062;15.446;2022-11-24T09:26:29;6.37;;;5.07;;
19278;SDS011;9773;47.062;15.446;2022-11-24T09:28:57;5.60;;;5.10;;
19278;SDS011;9773;47.062;15.446;2022-11-24T09:31:25;5.43;;;5.00;;
19278;SDS011;9773;47.062;15.446;2022-11-24T09:33:57;6.83;;;5.10;;
19278;SDS011;9773;47.062;15.446;2022-11-24T09:36:24;5.80;;;5.33;;
19278;SDS011;9773;47.062;15.446;2022-11-24T09:38:50;6.17;;;5.60;;
19278;SDS011;9773;47.062;15.446;2022-11-24T09:52:36;8.90;;;6.83;;
19278;SDS011;9773;47.062;15.446;2022-11-24T09:55:07;7.80;;;6.80;;
19278;SDS011;9773;47.062;15.446;2022-11-24T10:00:36;10.47;;;7.50;;
19278;SDS011;9773;47.062;15.446;2022-11-24T10:03:03;9.50;;;8.20;;
19278;SDS011;9773;47.062;15.446;2022-11-24T10:05:29;10.50;;;8.43;;
19278;SDS011;9773;47.062;15.446;2022-11-24T10:08:22;12.10;;;7.37;;
19278;SDS011;9773;47.062;15.446;2022-11-24T10:11:03;10.83;;;7.40;;
19278;SDS011;9773;47.062;15.446;2022-11-24T10:25:09;15.70;;;8.93;;
19278;SDS011;9773;47.062;15.446;2022-11-24T10:27:43;11.87;;;9.50;;
19278;SDS011;9773;47.062;15.446;2022-11-24T10:30:18;11.57;;;9.40;;
19278;SDS011;9773;47.062;15.446;2022-11-24T10:32:51;13.27;;;9.87;;
19278;SDS011;9773;47.062;15.446;2022-11-24T10:35:28;14.33;;;9.20;;
19278;SDS011;9773;47.062;15.446;2022-11-24T10:41:19;13.77;;;9.03;;
19278;SDS011;9773;47.062;15.446;2022-11-24T10:43:40;13.00;;;9.73;;
19278;SDS011;9773;47.062;15.446;2022-11-24T10:46:10;12.27;;;9.27;;
19278;SDS011;9773;47.062;15.446;2022-11-24T10:48:47;12.70;;;8.83;;
19278;SDS011;9773;47.062;15.446;2022-11-24T10:51:30;10.27;;;8.40;;
19278;SDS011;9773;47.062;15.446;2022-11-24T10:54:11;9.53;;;8.07;;
19278;SDS011;9773;47.062;15.446;2022-11-24T10:56:42;12.67;;;8.60;;
19278;SDS011;9773;47.062;15.446;2022-11-24T10:59:29;13.23;;;8.90;;
19278;SDS011;9773;47.062;15.446;2022-11-24T11:01:58;9.77;;;8.37;;
19278;SDS011;9773;47.062;15.446;2022-11-24T11:04:32;16.53;;;9.07;;
19278;SDS011;9773;47.062;15.446;2022-11-24T11:07:08;9.77;;;8.70;;
19278;SDS011;9773;47.062;15.446;2022-11-24T11:09:45;13.03;;;8.77;;
19278;SDS011;9773;47.062;15.446;2022-11-24T11:12:22;9.53;;;8.03;;
19278;SDS011;9773;47.062;15.446;2022-11-24T11:14:51;8.47;;;7.57;;
19278;SDS011;9773;47.062;15.446;2022-11-24T11:22:44;8.40;;;7.40;;
19278;SDS011;9773;47.062;15.446;2022-11-24T11:25:16;9.60;;;7.20;;
19278;SDS011;9773;47.062;15.446;2022-11-24T11:27:43;8.13;;;6.77;;
19278;SDS011;9773;47.062;15.446;2022-11-24T11:32:54;8.03;;;7.00;;
19278;SDS011;9773;47.062;15.446;2022-11-24T11:35:24;7.87;;;6.47;;
19278;SDS011;9773;47.062;15.446;2022-11-24T11:37:57;7.53;;;6.63;;
19278;SDS011;9773;47.062;15.446;2022-11-24T11:40:29;7.27;;;6.57;;
19278;SDS011;9773;47.062;15.446;2022-11-24T11:42:59;6.63;;;6.03;;
19278;SDS011;9773;47.062;15.446;2022-11-24T11:45:34;8.27;;;6.70;;
19278;SDS011;9773;47.062;15.446;2022-11-24T11:53:23;6.33;;;5.77;;
19278;SDS011;9773;47.062;15.446;2022-11-24T12:04:03;7.00;;;5.57;;
19278;SDS011;9773;47.062;15.446;2022-11-24T12:06:55;6.27;;;5.67;;
19278;SDS011;9773;47.062;15.446;2022-11-24T12:23:48;5.90;;;4.90;;
19278;SDS011;9773;47.062;15.446;2022-11-24T12:26:27;7.87;;;4.77;;
19278;SDS011;9773;47.062;15.446;2022-11-24T12:32:01;6.70;;;5.00;;
19278;SDS011;9773;47.062;15.446;2022-11-24T12:35:02;4.70;;;4.20;;
19278;SDS011;9773;47.062;15.446;2022-11-24T12:43:35;4.57;;;4.17;;
19278;SDS011;9773;47.062;15.446;2022-11-24T12:51:38;3.57;;;3.37;;
19278;SDS011;9773;47.062;15.446;2022-11-24T12:54:11;4.67;;;3.70;;
19278;SDS011;9773;47.062;15.446;2022-11-24T12:56:46;4.20;;;3.80;;
19278;SDS011;9773;47.062;15.446;2022-11-24T12:59:27;4.67;;;3.90;;
19278;SDS011;9773;47.062;15.446;2022-11-24T13:04:46;5.97;;;3.60;;
19278;SDS011;9773;47.062;15.446;2022-11-24T17:59:43;5.67;;;4.83;;
19278;SDS011;9773;47.062;15.446;2022-11-24T18:03:25;6.33;;;4.77;;
19278;SDS011;9773;47.062;15.446;2022-11-24T18:07:00;9.30;;;5.83;;
19278;SDS011;9773;47.062;15.446;2022-11-24T18:10:47;9.43;;;6.23;;
19278;SDS011;9773;47.062;15.446;2022-11-24T18:17:18;6.43;;;5.70;;
19278;SDS011;9773;47.062;15.446;2022-11-24T18:19:44;5.90;;;4.83;;
19278;SDS011;9773;47.062;15.446;2022-11-24T18:22:11;6.43;;;5.53;;
19278;SDS011;9773;47.062;15.446;2022-11-24T18:24:37;8.87;;;5.90;;
19278;SDS011;9773;47.062;15.446;2022-11-24T18:27:03;8.07;;;5.73;;
19278;SDS011;9773;47.062;15.446;2022-11-24T18:29:29;10.60;;;5.93;;
19278;SDS011;9773;47.062;15.446;2022-11-24T18:31:55;7.40;;;5.80;;
19278;SDS011;9773;47.062;15.446;2022-11-24T18:34:21;9.50;;;6.47;;
19278;SDS011;9773;47.062;15.446;2022-11-24T18:36:48;9.00;;;6.10;;
19278;SDS011;9773;47.062;15.446;2022-11-24T18:39:16;7.00;;;5.77;;
19278;SDS011;9773;47.062;15.446;2022-11-24T18:41:44;7.20;;;5.47;;
19278;SDS011;9773;47.062;15.446;2022-11-24T18:44:10;8.67;;;5.93;;
19278;SDS011;9773;47.062;15.446;2022-11-24T18:46:36;8.53;;;6.63;;
19278;SDS011;9773;47.062;15.446;2022-11-24T18:49:03;10.37;;;6.50;;
19278;SDS011;9773;47.062;15.446;2022-11-24T18:51:39;6.70;;;5.63;;
19278;SDS011;9773;47.062;15.446;2022-11-24T18:54:07;12.03;;;6.70;;
19278;SDS011;9773;47.062;15.446;2022-11-24T19:17:15;8.97;;;6.70;;
19278;SDS011;9773;47.062;15.446;2022-11-24T19:19:41;8.57;;;6.43;;
19278;SDS011;9773;47.062;15.446;2022-11-24T19:22:09;7.23;;;6.10;;
19278;SDS011;9773;47.062;15.446;2022-11-24T19:24:37;8.40;;;5.67;;
19278;SDS011;9773;47.062;15.446;2022-11-24T19:27:06;6.70;;;5.97;;
19278;SDS011;9773;47.062;15.446;2022-11-24T19:32:12;6.87;;;6.17;;
19278;SDS011;9773;47.062;15.446;2022-11-24T19:34:40;11.43;;;6.67;;
19278;SDS011;9773;47.062;15.446;2022-11-24T19:39:56;8.17;;;6.30;;
19278;SDS011;9773;47.062;15.446;2022-11-24T19:42:22;10.23;;;6.37;;
19278;SDS011;9773;47.062;15.446;2022-11-24T19:45:17;8.27;;;5.93;;
19278;SDS011;9773;47.062;15.446;2022-11-24T19:48:09;7.03;;;6.17;;
19278;SDS011;9773;47.062;15.446;2022-11-24T19:51:03;12.10;;;7.07;;
19278;SDS011;9773;47.062;15.446;2022-11-24T19:53:40;7.23;;;6.10;;
19278;SDS011;9773;47.062;15.446;2022-11-24T19:56:11;10.00;;;7.33;;
19278;SDS011;9773;47.062;15.446;2022-11-24T20:04:23;10.73;;;7.70;;
19278;SDS011;9773;47.062;15.446;2022-11-24T20:07:07;10.83;;;7.00;;
19278;SDS011;9773;47.062;15.446;2022-11-24T20:09:37;10.30;;;7.70;;
19278;SDS011;9773;47.062;15.446;2022-11-24T20:17:57;8.90;;;7.00;;
19278;SDS011;9773;47.062;15.446;2022-11-24T20:20:45;9.20;;;7.27;;
19278;SDS011;9773;47.062;15.446;2022-11-24T20:23:16;10.53;;;6.93;;
19278;SDS011;9773;47.062;15.446;2022-11-24T20:25:42;11.20;;;8.40;;
19278;SDS011;9773;47.062;15.446;2022-11-24T20:30:50;11.33;;;7.30;;
19278;SDS011;9773;47.062;15.446;2022-11-24T20:33:35;11.37;;;7.87;;
19278;SDS011;9773;47.062;15.446;2022-11-24T20:36:14;12.83;;;8.63;;
19278;SDS011;9773;47.062;15.446;2022-11-24T20:38:47;9.57;;;8.40;;
19278;SDS011;9773;47.062;15.446;2022-11-24T20:41:19;9.23;;;7.50;;
19278;SDS011;9773;47.062;15.446;2022-11-24T20:44:16;17.10;;;11.30;;
19278;SDS011;9773;47.062;15.446;2022-11-24T20:46:53;13.97;;;10.43;;
19278;SDS011;9773;47.062;15.446;2022-11-24T20:49:46;15.20;;;9.90;;
19278;SDS011;9773;47.062;15.446;2022-11-24T20:52:16;9.97;;;6.90;;
19278;SDS011;9773;47.062;15.446;2022-11-24T20:54:51;9.50;;;7.00;;
19278;SDS011;9773;47.062;15.446;2022-11-24T20:57:40;9.30;;;6.77;;
19278;SDS011;9773;47.062;15.446;2022-11-24T21:00:11;9.60;;;6.87;;
19278;SDS011;9773;47.062;15.446;2022-11-24T21:05:29;7.67;;;6.00;;
19278;SDS011;9773;47.062;15.446;2022-11-24T21:07:59;9.20;;;6.37;;
19278;SDS011;9773;47.062;15.446;2022-11-24T21:10:25;7.63;;;6.00;;
19278;SDS011;9773;47.062;15.446;2022-11-24T21:18:07;7.47;;;5.97;;
19278;SDS011;9773;47.062;15.446;2022-11-24T21:23:48;12.07;;;7.47;;
19278;SDS011;9773;47.062;15.446;2022-11-24T21:26:14;9.00;;;6.43;;
19278;SDS011;9773;47.062;15.446;2022-11-24T21:29:29;10.37;;;6.13;;
19278;SDS011;9773;47.062;15.446;2022-11-24T21:31:57;7.73;;;6.50;;
19278;SDS011;9773;47.062;15.446;2022-11-24T21:34:23;9.70;;;6.43;;
19278;SDS011;9773;47.062;15.446;2022-11-24T21:36:50;7.73;;;6.23;;
19278;SDS011;9773;47.062;15.446;2022-11-24T21:39:15;7.23;;;5.97;;
19278;SDS011;9773;47.062;15.446;2022-11-24T21:41:42;8.53;;;6.07;;
19278;SDS011;9773;47.062;15.446;2022-11-24T21:44:12;6.80;;;5.40;;
19278;SDS011;9773;47.062;15.446;2022-11-24T21:46:39;9.20;;;6.37;;
19278;SDS011;9773;47.062;15.446;2022-11-24T21:49:05;10.60;;;6.50;;
19278;SDS011;9773;47.062;15.446;2022-11-24T21:51:31;8.50;;;6.03;;
19278;SDS011;9773;47.062;15.446;2022-11-24T21:53:57;7.30;;;5.77;;
19278;SDS011;9773;47.062;15.446;2022-11-24T21:56:22;8.60;;;6.17;;
19278;SDS011;9773;47.062;15.446;2022-11-24T21:58:49;8.20;;;5.43;;
19278;SDS011;9773;47.062;15.446;2022-11-24T22:01:20;8.67;;;6.37;;
19278;SDS011;9773;47.062;15.446;2022-11-24T22:03:47;9.03;;;6.30;;
19278;SDS011;9773;47.062;15.446;2022-11-24T22:06:14;11.07;;;6.83;;
19278;SDS011;9773;47.062;15.446;2022-11-24T22:08:41;8.63;;;6.47;;
19278;SDS011;9773;47.062;15.446;2022-11-24T22:11:12;15.27;;;8.90;;
19278;SDS011;9773;47.062;15.446;2022-11-24T22:13:39;8.80;;;6.43;;
19278;SDS011;9773;47.062;15.446;2022-11-24T22:16:07;11.73;;;7.43;;
19278;SDS011;9773;47.062;15.446;2022-11-24T22:18:36;9.37;;;6.73;;
19278;SDS011;9773;47.062;15.446;2022-11-24T22:21:04;8.60;;;6.70;;